Decoded Metar for OISL (LAR in IRAN) (IATA:N/A) | Meteo·Mobile Aviation Weather
aviador You're here:

OISL Decoded Metar

LAR in IRAN
Report Time2018-09-25 19:00:00
UTC Time2018-09-25 19:15:33
Flight Rules vfr VFR
WindCalm
Visibility9999 m
Phenomena:N/A
Clouds:N/A
Expected CloudBase > 12,800 ft AGL from Temp-Dew spread
CeilingNone
Temp31°C (ISA +21)
Dew Point-1°C (13% RH)
Heat Index28.9°C
AAT28.9°C
QNH1009 hPa
Density Alt5,217 ft
Elevation2,598 ft
Report Wrong Elevation
Raw Report
METAR OISL 251900Z 00000KT CAVOK 31/M01 Q1009=

Extra information for OISL:More info

Metar Taf Metar & Taf Last 4 Metars F.Rules Stats Wind Profile Meteogram Temp Stats Airport Information Weather charts Add Link Nearby VenuesMetar ALERT Operation Metar Decoded Social comments